sensor_id;sensor_type;location;lat;lon;timestamp;pressure;altitude;pressure_sealevel;temperature;humidity
19447;BME280;9862;49.462;11.054;2023-04-10T00:01:48;98811.84;;;10.98;100.00
19447;BME280;9862;49.462;11.054;2023-04-10T00:04:15;98805.66;;;10.91;100.00
19447;BME280;9862;49.462;11.054;2023-04-10T00:06:41;98802.16;;;10.90;100.00
19447;BME280;9862;49.462;11.054;2023-04-10T00:09:08;98807.31;;;10.92;100.00
19447;BME280;9862;49.462;11.054;2023-04-10T00:11:36;98812.63;;;10.92;100.00
19447;BME280;9862;49.462;11.054;2023-04-10T00:14:03;98812.63;;;10.92;100.00
19447;BME280;9862;49.462;11.054;2023-04-10T00:16:29;98818.09;;;10.83;100.00
19447;BME280;9862;49.462;11.054;2023-04-10T00:18:56;98821.50;;;10.77;100.00
19447;BME280;9862;49.462;11.054;2023-04-10T00:21:22;98811.66;;;10.78;100.00
19447;BME280;9862;49.462;11.054;2023-04-10T00:23:50;98801.22;;;10.76;100.00
19447;BME280;9862;49.462;11.054;2023-04-10T00:26:17;98804.50;;;10.78;100.00
19447;BME280;9862;49.462;11.054;2023-04-10T00:28:46;98800.28;;;10.84;100.00
19447;BME280;9862;49.462;11.054;2023-04-10T00:31:12;98796.78;;;10.83;100.00
19447;BME280;9862;49.462;11.054;2023-04-10T00:33:39;98794.31;;;10.82;100.00
19447;BME280;9862;49.462;11.054;2023-04-10T00:36:06;98793.22;;;10.76;100.00
19447;BME280;9862;49.462;11.054;2023-04-10T00:38:32;98784.63;;;10.74;100.00
19447;BME280;9862;49.462;11.054;2023-04-10T00:40:59;98780.31;;;10.73;100.00
19447;BME280;9862;49.462;11.054;2023-04-10T00:43:25;98781.69;;;10.69;100.00
19447;BME280;9862;49.462;11.054;2023-04-10T00:45:53;98775.75;;;10.67;100.00
19447;BME280;9862;49.462;11.054;2023-04-10T00:48:20;98784.31;;;10.63;100.00
19447;BME280;9862;49.462;11.054;2023-04-10T00:50:47;98780.38;;;10.58;100.00
19447;BME280;9862;49.462;11.054;2023-04-10T00:53:13;98777.28;;;10.55;100.00
19447;BME280;9862;49.462;11.054;2023-04-10T00:55:40;98777.81;;;10.50;100.00
19447;BME280;9862;49.462;11.054;2023-04-10T00:58:07;98780.47;;;10.50;100.00
19447;BME280;9862;49.462;11.054;2023-04-10T01:00:37;98789.28;;;10.51;100.00
19447;BME280;9862;49.462;11.054;2023-04-10T01:03:05;98783.16;;;10.50;100.00
19447;BME280;9862;49.462;11.054;2023-04-10T01:05:38;98794.63;;;10.51;100.00
19447;BME280;9862;49.462;11.054;2023-04-10T01:08:11;98790.50;;;10.48;100.00
19447;BME280;9862;49.462;11.054;2023-04-10T01:10:45;98782.72;;;10.47;100.00
19447;BME280;9862;49.462;11.054;2023-04-10T01:13:15;98788.47;;;10.50;100.00
19447;BME280;9862;49.462;11.054;2023-04-10T01:15:51;98786.00;;;10.49;100.00
19447;BME280;9862;49.462;11.054;2023-04-10T01:18:23;98784.34;;;10.48;100.00
19447;BME280;9862;49.462;11.054;2023-04-10T01:20:52;98786.63;;;10.51;100.00
19447;BME280;9862;49.462;11.054;2023-04-10T01:23:42;98781.50;;;10.49;100.00
19447;BME280;9862;49.462;11.054;2023-04-10T01:26:30;98774.53;;;10.48;100.00
19447;BME280;9862;49.462;11.054;2023-04-10T01:29:05;98775.34;;;10.49;100.00
19447;BME280;9862;49.462;11.054;2023-04-10T01:31:36;98775.75;;;10.46;100.00
19447;BME280;9862;49.462;11.054;2023-04-10T01:34:07;98773.72;;;10.48;100.00
19447;BME280;9862;49.462;11.054;2023-04-10T01:36:39;98774.84;;;10.39;100.00
19447;BME280;9862;49.462;11.054;2023-04-10T01:39:07;98779.94;;;10.34;100.00
19447;BME280;9862;49.462;11.054;2023-04-10T01:41:35;98781.28;;;10.29;100.00
19447;BME280;9862;49.462;11.054;2023-04-10T01:44:05;98781.28;;;10.29;100.00
19447;BME280;9862;49.462;11.054;2023-04-10T01:46:32;98772.06;;;10.25;100.00
19447;BME280;9862;49.462;11.054;2023-04-10T01:49:00;98778.00;;;10.27;100.00
19447;BME280;9862;49.462;11.054;2023-04-10T01:51:29;98784.03;;;10.21;100.00
19447;BME280;9862;49.462;11.054;2023-04-10T01:53:57;98784.72;;;10.23;100.00
19447;BME280;9862;49.462;11.054;2023-04-10T01:56:24;98784.72;;;10.23;100.00
19447;BME280;9862;49.462;11.054;2023-04-10T01:58:51;98784.41;;;10.18;100.00
19447;BME280;9862;49.462;11.054;2023-04-10T02:01:20;98783.50;;;10.11;100.00
19447;BME280;9862;49.462;11.054;2023-04-10T02:03:47;98784.53;;;10.10;100.00
19447;BME280;9862;49.462;11.054;2023-04-10T02:06:17;98787.56;;;10.07;100.00
19447;BME280;9862;49.462;11.054;2023-04-10T02:08:52;98791.25;;;10.06;100.00
19447;BME280;9862;49.462;11.054;2023-04-10T02:11:25;98785.44;;;10.02;100.00
19447;BME280;9862;49.462;11.054;2023-04-10T02:13:57;98782.97;;;10.01;100.00
19447;BME280;9862;49.462;11.054;2023-04-10T02:16:28;98777.59;;;9.94;100.00
19447;BME280;9862;49.462;11.054;2023-04-10T02:18:57;98783.91;;;9.93;100.00
19447;BME280;9862;49.462;11.054;2023-04-10T02:21:24;98785.00;;;9.99;100.00
19447;BME280;9862;49.462;11.054;2023-04-10T02:23:56;98776.41;;;9.97;100.00
19447;BME280;9862;49.462;11.054;2023-04-10T02:26:24;98781.72;;;9.97;100.00
19447;BME280;9862;49.462;11.054;2023-04-10T02:28:51;98783.75;;;9.95;100.00
19447;BME280;9862;49.462;11.054;2023-04-10T02:31:17;98783.38;;;9.98;100.00
19447;BME280;9862;49.462;11.054;2023-04-10T02:33:45;98794.38;;;9.95;100.00
19447;BME280;9862;49.462;11.054;2023-04-10T02:36:11;98796.84;;;9.96;100.00
19447;BME280;9862;49.462;11.054;2023-04-10T02:38:38;98797.66;;;9.97;100.00
19447;BME280;9862;49.462;11.054;2023-04-10T02:41:05;98798.88;;;9.94;100.00
19447;BME280;9862;49.462;11.054;2023-04-10T02:43:31;98800.22;;;9.90;100.00
19447;BME280;9862;49.462;11.054;2023-04-10T02:45:58;98800.69;;;9.94;100.00
19447;BME280;9862;49.462;11.054;2023-04-10T02:48:25;98796.38;;;9.93;100.00
19447;BME280;9862;49.462;11.054;2023-04-10T02:50:56;98797.13;;;9.87;100.00
19447;BME280;9862;49.462;11.054;2023-04-10T02:53:22;98794.00;;;9.83;100.00
19447;BME280;9862;49.462;11.054;2023-04-10T02:55:51;98790.72;;;9.81;100.00
19447;BME280;9862;49.462;11.054;2023-04-10T02:58:18;98792.53;;;9.81;100.00
19447;BME280;9862;49.462;11.054;2023-04-10T03:00:47;98792.00;;;9.85;100.00
19447;BME280;9862;49.462;11.054;2023-04-10T03:03:13;98788.97;;;9.88;100.00
19447;BME280;9862;49.462;11.054;2023-04-10T03:05:40;98790.16;;;9.86;100.00
19447;BME280;9862;49.462;11.054;2023-04-10T03:08:08;98795.84;;;9.83;100.00
19447;BME280;9862;49.462;11.054;2023-04-10T03:10:34;98794.19;;;9.82;100.00
19447;BME280;9862;49.462;11.054;2023-04-10T03:13:01;98794.19;;;9.82;100.00
19447;BME280;9862;49.462;11.054;2023-04-10T03:15:27;98787.97;;;9.74;100.00
19447;BME280;9862;49.462;11.054;2023-04-10T03:17:54;98793.28;;;9.74;100.00
19447;BME280;9862;49.462;11.054;2023-04-10T03:20:20;98790.34;;;9.69;100.00
19447;BME280;9862;49.462;11.054;2023-04-10T03:22:47;98781.38;;;9.70;100.00
19447;BME280;9862;49.462;11.054;2023-04-10T03:25:16;98787.25;;;9.66;100.00
19447;BME280;9862;49.462;11.054;2023-04-10T03:27:42;98779.81;;;9.61;100.00
19447;BME280;9862;49.462;11.054;2023-04-10T03:30:10;98777.53;;;9.58;100.00
19447;BME280;9862;49.462;11.054;2023-04-10T03:32:36;98776.22;;;9.54;100.00
19447;BME280;9862;49.462;11.054;2023-04-10T03:35:07;98777.53;;;9.58;100.00
19447;BME280;9862;49.462;11.054;2023-04-10T03:37:33;98778.34;;;9.59;100.00
19447;BME280;9862;49.462;11.054;2023-04-10T03:40:00;98776.72;;;9.58;100.00
19447;BME280;9862;49.462;11.054;2023-04-10T03:42:27;98777.88;;;9.55;100.00
19447;BME280;9862;49.462;11.054;2023-04-10T03:44:54;98773.41;;;9.56;100.00
19447;BME280;9862;49.462;11.054;2023-04-10T03:47:21;98774.69;;;9.60;100.00
19447;BME280;9862;49.462;11.054;2023-04-10T03:49:47;98770.56;;;9.57;100.00
19447;BME280;9862;49.462;11.054;2023-04-10T03:52:14;98776.22;;;9.54;100.00
19447;BME280;9862;49.462;11.054;2023-04-10T03:54:40;98771.69;;;9.48;100.00
19447;BME280;9862;49.462;11.054;2023-04-10T03:57:07;98768.38;;;9.46;100.00
19447;BME280;9862;49.462;11.054;2023-04-10T03:59:35;98761.88;;;9.49;100.00
19447;BME280;9862;49.462;11.054;2023-04-10T04:02:01;98764.53;;;9.49;100.00
19447;BME280;9862;49.462;11.054;2023-04-10T04:04:28;98768.38;;;9.46;100.00
19447;BME280;9862;49.462;11.054;2023-04-10T04:06:55;98765.25;;;9.42;100.00
19447;BME280;9862;49.462;11.054;2023-04-10T04:09:22;98768.72;;;9.43;100.00
19447;BME280;9862;49.462;11.054;2023-04-10T04:11:48;98767.09;;;9.42;100.00
19447;BME280;9862;49.462;11.054;2023-04-10T04:14:14;98768.72;;;9.43;100.00
19447;BME280;9862;49.462;11.054;2023-04-10T04:16:42;98769.09;;;9.40;100.00
19447;BME280;9862;49.462;11.054;2023-04-10T04:19:09;98769.28;;;9.38;100.00
19447;BME280;9862;49.462;11.054;2023-04-10T04:21:35;98773.13;;;9.36;100.00
19447;BME280;9862;49.462;11.054;2023-04-10T04:24:02;98766.81;;;9.37;100.00
19447;BME280;9862;49.462;11.054;2023-04-10T04:26:29;98767.47;;;9.39;100.00
19447;BME280;9862;49.462;11.054;2023-04-10T04:28:55;98763.44;;;9.28;100.00
19447;BME280;9862;49.462;11.054;2023-04-10T04:31:22;98776.22;;;9.25;100.00
19447;BME280;9862;49.462;11.054;2023-04-10T04:33:49;98778.25;;;9.23;100.00
19447;BME280;9862;49.462;11.054;2023-04-10T04:36:16;98787.66;;;9.25;100.00
19447;BME280;9862;49.462;11.054;2023-04-10T04:38:42;98788.03;;;9.22;100.00
19447;BME280;9862;49.462;11.054;2023-04-10T04:41:09;98792.16;;;9.25;100.00
19447;BME280;9862;49.462;11.054;2023-04-10T04:43:35;98777.03;;;9.25;100.00
19447;BME280;9862;49.462;11.054;2023-04-10T04:46:02;98781.53;;;9.25;100.00
19447;BME280;9862;49.462;11.054;2023-04-10T04:48:28;98794.81;;;9.25;100.00
19447;BME280;9862;49.462;11.054;2023-04-10T04:50:56;98786.22;;;9.23;100.00
19447;BME280;9862;49.462;11.054;2023-04-10T04:53:23;98788.97;;;9.29;100.00
19447;BME280;9862;49.462;11.054;2023-04-10T04:55:49;98791.06;;;9.34;100.00
19447;BME280;9862;49.462;11.054;2023-04-10T04:58:16;98790.06;;;9.35;100.00
19447;BME280;9862;49.462;11.054;2023-04-10T05:00:42;98793.91;;;9.32;100.00
19447;BME280;9862;49.462;11.054;2023-04-10T05:03:09;98806.38;;;9.32;100.00
19447;BME280;9862;49.462;11.054;2023-04-10T05:05:36;98810.69;;;9.33;100.00
19447;BME280;9862;49.462;11.054;2023-04-10T05:08:04;98806.28;;;9.40;100.00
19447;BME280;9862;49.462;11.054;2023-04-10T05:10:30;98808.31;;;9.38;100.00
19447;BME280;9862;49.462;11.054;2023-04-10T05:12:57;98815.28;;;9.39;100.00
19447;BME280;9862;49.462;11.054;2023-04-10T05:15:23;98818.75;;;9.39;100.00
19447;BME280;9862;49.462;11.054;2023-04-10T05:17:50;98821.88;;;9.43;100.00
19447;BME280;9862;49.462;11.054;2023-04-10T05:20:17;98817.84;;;9.47;100.00
19447;BME280;9862;49.462;11.054;2023-04-10T05:22:44;98811.72;;;9.46;100.00
19447;BME280;9862;49.462;11.054;2023-04-10T05:25:12;98814.63;;;9.52;100.00
19447;BME280;9862;49.462;11.054;2023-04-10T05:27:38;98813.09;;;9.57;100.00
19447;BME280;9862;49.462;11.054;2023-04-10T05:30:06;98810.69;;;9.62;100.00
19447;BME280;9862;49.462;11.054;2023-04-10T05:32:33;98806.19;;;9.63;100.00
19447;BME280;9862;49.462;11.054;2023-04-10T05:34:59;98800.25;;;9.61;100.00
19447;BME280;9862;49.462;11.054;2023-04-10T05:37:26;98802.72;;;9.62;100.00
19447;BME280;9862;49.462;11.054;2023-04-10T05:39:52;98794.41;;;9.65;100.00
19447;BME280;9862;49.462;11.054;2023-04-10T05:42:20;98796.13;;;9.73;100.00
19447;BME280;9862;49.462;11.054;2023-04-10T05:44:46;98789.63;;;9.75;100.00
19447;BME280;9862;49.462;11.054;2023-04-10T05:47:13;98792.00;;;9.85;100.00
19447;BME280;9862;49.462;11.054;2023-04-10T05:49:39;98788.53;;;9.85;100.00
19447;BME280;9862;49.462;11.054;2023-04-10T05:52:06;98797.31;;;9.85;100.00
19447;BME280;9862;49.462;11.054;2023-04-10T05:54:32;98798.03;;;9.94;100.00
19447;BME280;9862;49.462;11.054;2023-04-10T05:56:59;98800.03;;;9.92;100.00
19447;BME280;9862;49.462;11.054;2023-04-10T05:59:27;98798.03;;;9.94;100.00
19447;BME280;9862;49.462;11.054;2023-04-10T06:01:55;98801.34;;;9.96;100.00
19447;BME280;9862;49.462;11.054;2023-04-10T06:04:21;98794.44;;;10.01;100.00
19447;BME280;9862;49.462;11.054;2023-04-10T06:06:48;98800.84;;;10.07;100.00
19447;BME280;9862;49.462;11.054;2023-04-10T06:09:15;98795.53;;;10.07;100.00
19447;BME280;9862;49.462;11.054;2023-04-10T06:11:41;98799.03;;;10.08;100.00
19447;BME280;9862;49.462;11.054;2023-04-10T06:14:08;98794.34;;;10.10;100.00
19447;BME280;9862;49.462;11.054;2023-04-10T06:16:35;98795.25;;;10.17;100.00
19447;BME280;9862;49.462;11.054;2023-04-10T06:19:02;98788.66;;;10.27;100.00
19447;BME280;9862;49.462;11.054;2023-04-10T06:21:29;98793.22;;;10.34;100.00
19447;BME280;9862;49.462;11.054;2023-04-10T06:23:55;98789.16;;;10.38;100.00
19447;BME280;9862;49.462;11.054;2023-04-10T06:26:23;98787.13;;;10.40;100.00
19447;BME280;9862;49.462;11.054;2023-04-10T06:28:49;98789.03;;;10.46;100.00
19447;BME280;9862;49.462;11.054;2023-04-10T06:31:19;98781.13;;;10.52;100.00
19447;BME280;9862;49.462;11.054;2023-04-10T06:33:47;98790.47;;;10.63;100.00
19447;BME280;9862;49.462;11.054;2023-04-10T06:36:14;98786.50;;;10.59;100.00
19447;BME280;9862;49.462;11.054;2023-04-10T06:38:41;98788.16;;;10.60;100.00
19447;BME280;9862;49.462;11.054;2023-04-10T06:41:07;98783.72;;;10.67;100.00
19447;BME280;9862;49.462;11.054;2023-04-10T06:43:35;98778.66;;;10.72;100.00
19447;BME280;9862;49.462;11.054;2023-04-10T06:46:02;98787.16;;;10.82;100.00
19447;BME280;9862;49.462;11.054;2023-04-10T06:48:29;98784.38;;;10.91;100.00
19447;BME280;9862;49.462;11.054;2023-04-10T06:50:57;98785.84;;;11.00;100.00
19447;BME280;9862;49.462;11.054;2023-04-10T06:53:24;98779.22;;;11.17;100.00
19447;BME280;9862;49.462;11.054;2023-04-10T06:55:51;98778.75;;;11.07;100.00
19447;BME280;9862;49.462;11.054;2023-04-10T06:58:17;98776.28;;;11.05;100.00
19447;BME280;9862;49.462;11.054;2023-04-10T07:00:45;98781.19;;;11.02;100.00
19447;BME280;9862;49.462;11.054;2023-04-10T07:03:11;98781.53;;;10.99;100.00
19447;BME280;9862;49.462;11.054;2023-04-10T07:05:38;98782.81;;;11.03;100.00
19447;BME280;9862;49.462;11.054;2023-04-10T07:08:06;98794.97;;;11.12;100.00
19447;BME280;9862;49.462;11.054;2023-04-10T07:10:33;98784.19;;;11.20;100.00
19447;BME280;9862;49.462;11.054;2023-04-10T07:13:00;98793.69;;;11.29;100.00
19447;BME280;9862;49.462;11.054;2023-04-10T07:15:26;98787.69;;;11.27;100.00
19447;BME280;9862;49.462;11.054;2023-04-10T07:17:53;98791.25;;;11.34;100.00
19447;BME280;9862;49.462;11.054;2023-04-10T07:20:20;98783.09;;;11.42;100.00
19447;BME280;9862;49.462;11.054;2023-04-10T07:22:47;98777.16;;;11.47;100.00
19447;BME280;9862;49.462;11.054;2023-04-10T07:25:14;98780.69;;;11.54;100.00
19447;BME280;9862;49.462;11.054;2023-04-10T07:27:42;98770.94;;;11.68;100.00
19447;BME280;9862;49.462;11.054;2023-04-10T07:30:09;98770.97;;;11.74;100.00
19447;BME280;9862;49.462;11.054;2023-04-10T07:32:36;98768.09;;;11.76;100.00
19447;BME280;9862;49.462;11.054;2023-04-10T07:35:05;98763.66;;;11.83;100.00
19447;BME280;9862;49.462;11.054;2023-04-10T07:37:31;98756.50;;;11.90;100.00
19447;BME280;9862;49.462;11.054;2023-04-10T07:39:58;98746.91;;;12.02;100.00
19447;BME280;9862;49.462;11.054;2023-04-10T07:42:26;98744.47;;;12.08;100.00
19447;BME280;9862;49.462;11.054;2023-04-10T07:44:52;98746.31;;;12.07;100.00
19447;BME280;9862;49.462;11.054;2023-04-10T07:47:19;98747.97;;;12.15;100.00
19447;BME280;9862;49.462;11.054;2023-04-10T07:49:46;98747.31;;;12.06;100.00
19447;BME280;9862;49.462;11.054;2023-04-10T07:52:16;98742.00;;;12.13;100.00
19447;BME280;9862;49.462;11.054;2023-04-10T07:54:42;98746.94;;;12.09;100.00
19447;BME280;9862;49.462;11.054;2023-04-10T07:57:09;98734.81;;;12.13;100.00
19447;BME280;9862;49.462;11.054;2023-04-10T07:59:37;98744.50;;;12.21;100.00
19447;BME280;9862;49.462;11.054;2023-04-10T08:02:03;98745.13;;;12.16;100.00
19447;BME280;9862;49.462;11.054;2023-04-10T08:04:30;98740.41;;;12.25;100.00
19447;BME280;9862;49.462;11.054;2023-04-10T08:06:56;98745.56;;;12.33;100.00
19447;BME280;9862;49.462;11.054;2023-04-10T08:09:23;98740.63;;;12.30;100.00
19447;BME280;9862;49.462;11.054;2023-04-10T08:11:49;98732.63;;;12.30;100.00
19447;BME280;9862;49.462;11.054;2023-04-10T08:14:16;98735.91;;;12.32;100.00
19447;BME280;9862;49.462;11.054;2023-04-10T08:16:44;98736.75;;;12.39;100.00
19447;BME280;9862;49.462;11.054;2023-04-10T08:19:10;98735.34;;;12.56;100.00
19447;BME280;9862;49.462;11.054;2023-04-10T08:21:37;98732.44;;;12.51;100.00
19447;BME280;9862;49.462;11.054;2023-04-10T08:24:04;98737.81;;;12.58;100.00
19447;BME280;9862;49.462;11.054;2023-04-10T08:26:30;98735.53;;;12.61;100.00
19447;BME280;9862;49.462;11.054;2023-04-10T08:28:58;98737.19;;;12.56;100.00
19447;BME280;9862;49.462;11.054;2023-04-10T08:31:26;98742.75;;;12.74;100.00
19447;BME280;9862;49.462;11.054;2023-04-10T08:33:54;98735.94;;;12.72;100.00
19447;BME280;9862;49.462;11.054;2023-04-10T08:36:21;98737.59;;;12.73;100.00
19447;BME280;9862;49.462;11.054;2023-04-10T08:38:48;98732.66;;;12.63;100.00
19447;BME280;9862;49.462;11.054;2023-04-10T08:41:16;98726.09;;;12.59;100.00
19447;BME280;9862;49.462;11.054;2023-04-10T08:43:43;98733.47;;;12.64;100.00
19447;BME280;9862;49.462;11.054;2023-04-10T08:46:10;98730.19;;;12.61;100.00
19447;BME280;9862;49.462;11.054;2023-04-10T08:48:38;98720.34;;;12.75;100.00
19447;BME280;9862;49.462;11.054;2023-04-10T08:51:13;98727.75;;;12.80;100.00
19447;BME280;9862;49.462;11.054;2023-04-10T08:53:42;98714.38;;;12.80;100.00
19447;BME280;9862;49.462;11.054;2023-04-10T08:56:11;98718.28;;;12.97;100.00
19447;BME280;9862;49.462;11.054;2023-04-10T08:58:38;98722.38;;;12.93;100.00
19447;BME280;9862;49.462;11.054;2023-04-10T09:01:06;98716.63;;;13.09;100.00
19447;BME280;9862;49.462;11.054;2023-04-10T09:03:33;98723.41;;;13.05;100.00
19447;BME280;9862;49.462;11.054;2023-04-10T09:06:01;98732.25;;;13.06;100.00
19447;BME280;9862;49.462;11.054;2023-04-10T09:08:29;98713.97;;;13.23;100.00
19447;BME280;9862;49.462;11.054;2023-04-10T09:10:56;98714.59;;;13.25;100.00
19447;BME280;9862;49.462;11.054;2023-04-10T09:13:37;98717.66;;;13.22;100.00
19447;BME280;9862;49.462;11.054;2023-04-10T09:16:04;98712.91;;;13.30;100.00
19447;BME280;9862;49.462;11.054;2023-04-10T09:18:42;98708.63;;;13.23;100.00
19447;BME280;9862;49.462;11.054;2023-04-10T09:21:10;98704.09;;;13.23;100.00
19447;BME280;9862;49.462;11.054;2023-04-10T09:23:38;98702.22;;;13.37;100.00
19447;BME280;9862;49.462;11.054;2023-04-10T09:26:21;98699.31;;;13.38;100.00
19447;BME280;9862;49.462;11.054;2023-04-10T09:28:55;98697.25;;;13.47;100.00
19447;BME280;9862;49.462;11.054;2023-04-10T09:31:30;98690.06;;;13.41;100.00
19447;BME280;9862;49.462;11.054;2023-04-10T09:34:07;98686.53;;;13.47;100.00
19447;BME280;9862;49.462;11.054;2023-04-10T09:36:34;98687.13;;;13.62;100.00
19447;BME280;9862;49.462;11.054;2023-04-10T09:39:02;98684.69;;;13.54;100.00
19447;BME280;9862;49.462;11.054;2023-04-10T09:41:29;98680.53;;;13.65;100.00
19447;BME280;9862;49.462;11.054;2023-04-10T09:44:04;98672.06;;;13.68;100.00
19447;BME280;9862;49.462;11.054;2023-04-10T09:46:32;98676.34;;;13.75;100.00
19447;BME280;9862;49.462;11.054;2023-04-10T09:48:59;98669.81;;;13.71;100.00
19447;BME280;9862;49.462;11.054;2023-04-10T09:51:30;98670.78;;;13.77;100.00
19447;BME280;9862;49.462;11.054;2023-04-10T09:53:58;98663.13;;;13.87;97.93
19447;BME280;9862;49.462;11.054;2023-04-10T09:56:27;98661.69;;;13.85;97.04
19447;BME280;9862;49.462;11.054;2023-04-10T09:58:56;98657.97;;;13.92;95.50
19447;BME280;9862;49.462;11.054;2023-04-10T10:01:24;98646.53;;;14.10;93.28
19447;BME280;9862;49.462;11.054;2023-04-10T10:03:53;98635.63;;;14.05;93.04
19447;BME280;9862;49.462;11.054;2023-04-10T10:06:20;98634.44;;;14.01;94.64
19447;BME280;9862;49.462;11.054;2023-04-10T10:08:47;98628.63;;;14.11;94.02
19447;BME280;9862;49.462;11.054;2023-04-10T10:11:17;98624.41;;;14.21;95.12
19447;BME280;9862;49.462;11.054;2023-04-10T10:13:48;98619.06;;;14.21;93.97
19447;BME280;9862;49.462;11.054;2023-04-10T10:16:19;98618.09;;;14.41;93.40
19447;BME280;9862;49.462;11.054;2023-04-10T10:18:50;98606.59;;;14.33;91.78
19447;BME280;9862;49.462;11.054;2023-04-10T10:21:20;98599.84;;;14.31;92.71
19447;BME280;9862;49.462;11.054;2023-04-10T10:23:48;98609.28;;;14.33;90.08
19447;BME280;9862;49.462;11.054;2023-04-10T10:26:18;98603.47;;;14.37;88.91
19447;BME280;9862;49.462;11.054;2023-04-10T10:28:47;98592.94;;;14.48;88.12
19447;BME280;9862;49.462;11.054;2023-04-10T10:31:14;98589.34;;;14.54;88.42
19447;BME280;9862;49.462;11.054;2023-04-10T10:33:42;98590.06;;;14.68;84.92
19447;BME280;9862;49.462;11.054;2023-04-10T10:36:11;98580.50;;;14.54;86.00
19447;BME280;9862;49.462;11.054;2023-04-10T10:38:41;98582.72;;;14.57;84.93
19447;BME280;9862;49.462;11.054;2023-04-10T10:41:12;98571.59;;;14.60;85.14
19447;BME280;9862;49.462;11.054;2023-04-10T10:43:49;98571.91;;;14.70;83.31
19447;BME280;9862;49.462;11.054;2023-04-10T10:46:26;98568.31;;;14.76;82.98
19447;BME280;9862;49.462;11.054;2023-04-10T10:48:58;98563.41;;;14.73;84.08
19447;BME280;9862;49.462;11.054;2023-04-10T10:51:41;98560.59;;;14.68;82.00
19447;BME280;9862;49.462;11.054;2023-04-10T10:54:26;98569.97;;;14.77;82.34
19447;BME280;9862;49.462;11.054;2023-04-10T10:56:52;98570.28;;;14.87;81.32
19447;BME280;9862;49.462;11.054;2023-04-10T10:59:54;98558.94;;;14.85;78.96
19447;BME280;9862;49.462;11.054;2023-04-10T11:02:24;98550.91;;;14.85;80.71
19447;BME280;9862;49.462;11.054;2023-04-10T11:04:51;98544.19;;;14.76;81.61
19447;BME280;9862;49.462;11.054;2023-04-10T11:07:17;98540.19;;;14.85;79.39
19447;BME280;9862;49.462;11.054;2023-04-10T11:09:46;98542.72;;;14.80;78.85
19447;BME280;9862;49.462;11.054;2023-04-10T11:12:13;98532.66;;;14.94;79.51
19447;BME280;9862;49.462;11.054;2023-04-10T11:14:42;98536.25;;;15.06;78.07
19447;BME280;9862;49.462;11.054;2023-04-10T11:17:09;98527.31;;;14.94;77.47
19447;BME280;9862;49.462;11.054;2023-04-10T11:19:58;98530.59;;;14.96;78.88
19447;BME280;9862;49.462;11.054;2023-04-10T11:22:26;98524.91;;;15.04;78.82
19447;BME280;9862;49.462;11.054;2023-04-10T11:24:58;98523.22;;;14.92;80.05
19447;BME280;9862;49.462;11.054;2023-04-10T11:27:44;98519.66;;;14.98;79.46
19447;BME280;9862;49.462;11.054;2023-04-10T11:30:26;98514.66;;;15.01;78.36
19447;BME280;9862;49.462;11.054;2023-04-10T11:32:53;98505.50;;;15.09;77.24
19447;BME280;9862;49.462;11.054;2023-04-10T11:35:20;98517.25;;;15.26;78.15
19447;BME280;9862;49.462;11.054;2023-04-10T11:37:46;98522.38;;;15.28;78.28
19447;BME280;9862;49.462;11.054;2023-04-10T11:40:13;98518.72;;;15.22;77.14
19447;BME280;9862;49.462;11.054;2023-04-10T11:42:40;98509.28;;;15.20;78.41
19447;BME280;9862;49.462;11.054;2023-04-10T11:45:27;98496.84;;;15.25;77.73
19447;BME280;9862;49.462;11.054;2023-04-10T11:47:54;98504.41;;;15.28;78.25
19447;BME280;9862;49.462;11.054;2023-04-10T11:50:21;98497.53;;;15.32;77.96
19447;BME280;9862;49.462;11.054;2023-04-10T11:52:48;98495.44;;;15.34;77.77
19447;BME280;9862;49.462;11.054;2023-04-10T11:55:15;98482.19;;;15.39;78.67
19447;BME280;9862;49.462;11.054;2023-04-10T11:57:44;98475.53;;;15.42;77.72
19447;BME280;9862;49.462;11.054;2023-04-10T12:00:12;98467.00;;;15.63;78.13
19447;BME280;9862;49.462;11.054;2023-04-10T12:02:51;98476.47;;;15.66;71.45
19447;BME280;9862;49.462;11.054;2023-04-10T12:05:18;98479.88;;;15.73;69.64
19447;BME280;9862;49.462;11.054;2023-04-10T12:07:45;98468.75;;;15.81;65.64
19447;BME280;9862;49.462;11.054;2023-04-10T12:10:11;98464.00;;;15.83;67.45
19447;BME280;9862;49.462;11.054;2023-04-10T12:12:38;98471.00;;;15.84;69.15
19447;BME280;9862;49.462;11.054;2023-04-10T12:15:26;98472.63;;;15.85;67.69
19447;BME280;9862;49.462;11.054;2023-04-10T12:17:55;98473.47;;;15.86;66.33
19447;BME280;9862;49.462;11.054;2023-04-10T12:20:22;98457.81;;;15.94;62.18
19447;BME280;9862;49.462;11.054;2023-04-10T12:22:53;98458.06;;;16.05;59.83
19447;BME280;9862;49.462;11.054;2023-04-10T12:25:21;98462.72;;;15.97;60.54
19447;BME280;9862;49.462;11.054;2023-04-10T12:27:48;98455.25;;;15.99;60.32
19447;BME280;9862;49.462;11.054;2023-04-10T12:30:15;98456.19;;;16.05;59.83
19447;BME280;9862;49.462;11.054;2023-04-10T12:32:49;98454.31;;;16.06;58.99
19447;BME280;9862;49.462;11.054;2023-04-10T12:35:17;98442.88;;;16.10;58.82
19447;BME280;9862;49.462;11.054;2023-04-10T12:37:48;98445.22;;;16.18;59.22
19447;BME280;9862;49.462;11.054;2023-04-10T12:40:15;98437.28;;;16.12;59.13
19447;BME280;9862;49.462;11.054;2023-04-10T12:42:41;98433.44;;;16.08;59.41
19447;BME280;9862;49.462;11.054;2023-04-10T12:45:09;98432.38;;;16.09;58.57
19447;BME280;9862;49.462;11.054;2023-04-10T12:47:43;98428.53;;;15.93;61.32
19447;BME280;9862;49.462;11.054;2023-04-10T12:50:11;98431.22;;;15.93;63.67
19447;BME280;9862;49.462;11.054;2023-04-10T12:52:42;98417.66;;;15.99;66.11
19447;BME280;9862;49.462;11.054;2023-04-10T12:55:10;98414.16;;;16.11;64.88
19447;BME280;9862;49.462;11.054;2023-04-10T12:57:37;98414.28;;;16.16;65.20
19447;BME280;9862;49.462;11.054;2023-04-10T13:00:04;98404.78;;;16.37;62.97
19447;BME280;9862;49.462;11.054;2023-04-10T13:02:34;98402.06;;;16.48;58.44